Time;durP1;ratioP1;P1;durP2;ratioP2;P2;SDS_P1;SDS_P2;PMS_P1;PMS_P2;Temp;Humidity;BMP_temperature;BMP_pressure;BME280_temperature;BME280_humidity;BME280_pressure;Samples;Min_cycle;Max_cycle;Signal;HPM_P1;HPM_P2
2023/08/13 00:03:30;;;;;;;12.77;11.40;;;;;;;;;;10233073;28;20047;-87
2023/08/13 00:08:31;;;;;;;17.35;13.25;;;;;;;;;;10230690;28;20063;-89
2023/08/13 00:13:33;;;;;;;12.63;11.27;;;;;;;;;;10233438;28;20711;-88
2023/08/13 00:18:33;;;;;;;11.45;10.25;;;;;;;;;;10226211;28;20052;-85
2023/08/13 00:23:35;;;;;;;10.85;9.65;;;;;;;;;;10224970;28;20061;-86
2023/08/13 00:28:39;;;;;;;12.07;10.75;;;;;;;;;;10234207;28;20062;-85
2023/08/13 00:33:43;;;;;;;12.48;11.13;;;;;;;;;;10230781;28;20279;-85
2023/08/13 00:38:43;;;;;;;14.33;10.47;;;;;;;;;;10206161;28;20048;-86
2023/08/13 00:43:43;;;;;;;12.80;10.40;;;;;;;;;;10244203;28;20463;-86
2023/08/13 00:48:46;;;;;;;12.23;10.93;;;;;;;;;;10218352;28;20366;-86
2023/08/13 00:53:47;;;;;;;11.93;10.63;;;;;;;;;;10211105;28;20305;-85
2023/08/13 00:58:48;;;;;;;14.20;10.88;;;;;;;;;;10221957;28;20129;-86
2023/08/13 01:09:26;;;;;;;10.65;9.55;;;;;;;;;;2788984;26;20122;-86
2023/08/13 01:14:51;;;;;;;12.63;10.43;;;;;;;;;;10192824;29;20059;-87
2023/08/13 01:19:54;;;;;;;11.63;10.10;;;;;;;;;;10199347;28;20558;-86
2023/08/13 01:24:57;;;;;;;12.37;11.07;;;;;;;;;;10275237;28;20097;-85
2023/08/13 01:30:34;;;;;;;15.82;11.25;;;;;;;;;;10267550;28;20302;-90
2023/08/13 01:35:36;;;;;;;12.18;10.90;;;;;;;;;;10270880;28;20069;-87
2023/08/13 01:40:38;;;;;;;;;;;;;;;;;;10270068;28;20585;-86
2023/08/13 01:45:39;;;;;;;11.50;10.30;;;;;;;;;;10259341;28;19918;-85
2023/08/13 01:50:39;;;;;;;19.07;11.47;;;;;;;;;;10269312;28;20138;-89
2023/08/13 01:55:40;;;;;;;13.93;11.73;;;;;;;;;;10267641;28;20054;-82
2023/08/13 02:00:50;;;;;;;11.25;10.10;;;;;;;;;;10269956;28;20070;-84
2023/08/13 02:05:52;;;;;;;13.10;11.35;;;;;;;;;;10258638;28;20047;-83
2023/08/13 02:10:52;;;;;;;10.80;9.43;;;;;;;;;;10271287;28;20054;-86
2023/08/13 02:15:52;;;;;;;11.80;9.87;;;;;;;;;;10267575;28;20080;-86
2023/08/13 02:20:53;;;;;;;12.80;9.00;;;;;;;;;;10266193;28;20301;-85
2023/08/13 02:25:53;;;;;;;12.27;10.18;;;;;;;;;;10270190;28;20043;-84
2023/08/13 02:30:54;;;;;;;10.00;8.98;;;;;;;;;;10273232;28;20546;-83
2023/08/13 02:35:54;;;;;;;9.93;8.93;;;;;;;;;;10274031;28;20035;-84
2023/08/13 02:40:55;;;;;;;13.23;10.40;;;;;;;;;;10274699;28;20043;-84
2023/08/13 02:45:55;;;;;;;13.87;10.83;;;;;;;;;;10273265;28;20114;-87
2023/08/13 02:50:55;;;;;;;12.55;9.20;;;;;;;;;;10286533;28;20315;-83
2023/08/13 02:55:57;;;;;;;10.77;9.67;;;;;;;;;;10287800;28;20069;-84
2023/08/13 03:00:58;;;;;;;9.63;8.63;;;;;;;;;;10277407;28;20507;-86
2023/08/13 03:05:58;;;;;;;17.33;14.15;;;;;;;;;;10256952;28;20047;-86
2023/08/13 03:11:00;;;;;;;12.45;10.02;;;;;;;;;;10280870;28;20058;-83
2023/08/13 03:16:01;;;;;;;12.55;10.35;;;;;;;;;;10252411;28;20042;-84
2023/08/13 03:21:01;;;;;;;15.77;10.88;;;;;;;;;;10267928;28;20043;-85
2023/08/13 03:26:04;;;;;;;14.18;10.32;;;;;;;;;;10256560;28;20137;-84
2023/08/13 03:31:05;;;;;;;11.83;9.80;;;;;;;;;;10257034;28;20071;-84
2023/08/13 03:36:19;;;;;;;13.65;10.02;;;;;;;;;;10269125;28;20051;-89
2023/08/13 03:41:21;;;;;;;11.53;10.27;;;;;;;;;;10262339;28;20034;-86
2023/08/13 03:46:22;;;;;;;10.07;8.25;;;;;;;;;;10259924;28;20055;-87
2023/08/13 03:51:23;;;;;;;11.77;10.57;;;;;;;;;;10262744;28;20471;-87
2023/08/13 03:56:25;;;;;;;11.17;9.53;;;;;;;;;;10279916;28;20058;-87
2023/08/13 04:01:27;;;;;;;10.93;9.53;;;;;;;;;;10271728;28;20795;-85
2023/08/13 04:06:28;;;;;;;10.13;9.13;;;;;;;;;;10271813;28;20046;-86
2023/08/13 04:11:29;;;;;;;15.02;10.32;;;;;;;;;;10279217;28;20322;-88
2023/08/13 04:16:29;;;;;;;15.87;11.23;;;;;;;;;;10296180;28;20059;-85
2023/08/13 04:21:29;;;;;;;11.03;9.80;;;;;;;;;;10265953;28;20600;-86
2023/08/13 04:26:32;;;;;;;12.43;11.13;;;;;;;;;;10257673;28;20293;-88
2023/08/13 04:31:35;;;;;;;12.75;11.25;;;;;;;;;;10262830;28;20117;-86
2023/08/13 04:36:36;;;;;;;15.50;12.47;;;;;;;;;;10286055;28;20051;-86
2023/08/13 04:41:40;;;;;;;13.70;11.07;;;;;;;;;;10270751;28;20365;-85
2023/08/13 04:46:43;;;;;;;12.30;10.88;;;;;;;;;;10267954;28;20061;-88
2023/08/13 04:51:44;;;;;;;11.82;10.63;;;;;;;;;;10271577;28;20152;-91
2023/08/13 04:56:48;;;;;;;13.07;11.23;;;;;;;;;;10274532;28;20048;-90
2023/08/13 05:01:48;;;;;;;12.05;10.85;;;;;;;;;;10270054;28;20137;-86
2023/08/13 05:06:49;;;;;;;15.65;11.45;;;;;;;;;;10271059;28;20126;-84
2023/08/13 05:11:50;;;;;;;15.85;12.65;;;;;;;;;;10249327;28;20051;-87
2023/08/13 05:16:54;;;;;;;16.42;12.23;;;;;;;;;;10245518;28;20479;-87
2023/08/13 05:21:54;;;;;;;13.00;11.10;;;;;;;;;;10267654;28;20105;-84
2023/08/13 05:26:54;;;;;;;12.47;10.57;;;;;;;;;;10274046;28;20031;-87
2023/08/13 05:31:55;;;;;;;14.02;11.50;;;;;;;;;;10270352;28;20310;-88
2023/08/13 05:36:56;;;;;;;12.45;10.82;;;;;;;;;;10301614;28;20034;-80
2023/08/13 05:41:57;;;;;;;12.05;10.73;;;;;;;;;;10250879;28;20057;-75
2023/08/13 05:46:57;;;;;;;15.85;14.15;;;;;;;;;;10259622;28;20085;-80
2023/08/13 05:51:59;;;;;;;19.10;15.55;;;;;;;;;;10244512;28;20062;-77
2023/08/13 05:56:59;;;;;;;18.98;15.00;;;;;;;;;;10260982;28;20047;-81
2023/08/13 06:01:59;;;;;;;20.57;16.07;;;;;;;;;;10257331;28;20495;-77
2023/08/13 06:07:00;;;;;;;16.77;14.10;;;;;;;;;;10283832;28;20455;-81
2023/08/13 06:12:00;;;;;;;17.13;13.48;;;;;;;;;;10278033;28;20180;-76
2023/08/13 06:17:01;;;;;;;17.97;15.60;;;;;;;;;;10274849;28;20047;-74
2023/08/13 06:22:01;;;;;;;17.70;15.53;;;;;;;;;;10272685;28;20043;-75
2023/08/13 06:27:01;;;;;;;21.47;17.20;;;;;;;;;;10274509;28;20058;-77
2023/08/13 06:32:05;;;;;;;18.77;16.45;;;;;;;;;;10272182;28;20066;-80
2023/08/13 06:37:05;;;;;;;18.48;15.60;;;;;;;;;;10260452;28;20058;-81
2023/08/13 06:42:06;;;;;;;18.27;15.97;;;;;;;;;;10270290;28;20625;-83
2023/08/13 06:47:07;;;;;;;17.25;14.93;;;;;;;;;;10263893;28;20074;-77
2023/08/13 06:52:07;;;;;;;21.80;16.43;;;;;;;;;;10271645;28;20603;-76
2023/08/13 06:57:08;;;;;;;20.40;16.23;;;;;;;;;;10272835;28;20050;-77
2023/08/13 07:02:08;;;;;;;20.02;17.35;;;;;;;;;;10250651;28;20043;-75
2023/08/13 07:07:09;;;;;;;18.93;16.73;;;;;;;;;;10274524;28;20050;-76
2023/08/13 07:12:09;;;;;;;17.50;15.23;;;;;;;;;;10269234;28;20404;-79
2023/08/13 07:17:10;;;;;;;15.20;13.53;;;;;;;;;;10246089;28;20053;-85
2023/08/13 07:22:10;;;;;;;14.52;12.63;;;;;;;;;;10259905;28;20054;-80
2023/08/13 07:27:11;;;;;;;12.43;11.13;;;;;;;;;;10262825;28;20059;-77
2023/08/13 07:32:11;;;;;;;12.43;11.13;;;;;;;;;;10273025;28;20093;-80
2023/08/13 07:37:12;;;;;;;11.23;9.23;;;;;;;;;;10272836;28;20057;-87
2023/08/13 07:47:26;;;;;;;9.35;7.80;;;;;;;;;;10269258;28;20051;-83
2023/08/13 07:52:26;;;;;;;8.53;6.87;;;;;;;;;;10275208;28;20063;-83
2023/08/13 07:57:27;;;;;;;7.53;6.70;;;;;;;;;;10304576;28;20111;-87
2023/08/13 08:02:29;;;;;;;6.87;6.20;;;;;;;;;;10298895;28;20085;-86
2023/08/13 08:07:32;;;;;;;8.45;6.32;;;;;;;;;;10244978;23;20127;-84
2023/08/13 08:12:33;;;;;;;6.90;6.20;;;;;;;;;;10233736;28;20791;-85
2023/08/13 08:17:35;;;;;;;6.72;6.10;;;;;;;;;;10223660;28;20396;-86
2023/08/13 08:22:35;;;;;;;6.23;5.63;;;;;;;;;;10257332;28;20059;-85
2023/08/13 08:27:37;;;;;;;6.80;6.20;;;;;;;;;;10258880;28;20350;-83
2023/08/13 08:32:37;;;;;;;4.88;4.28;;;;;;;;;;10253517;28;20579;-86
2023/08/13 08:37:38;;;;;;;123.97;87.88;;;;;;;;;;10263083;28;20042;-90
2023/08/13 08:42:41;;;;;;;6.40;5.80;;;;;;;;;;10254284;28;20127;-79
2023/08/13 08:47:42;;;;;;;4.85;4.45;;;;;;;;;;10242816;28;20062;-74
2023/08/13 08:52:42;;;;;;;4.65;4.25;;;;;;;;;;10235531;28;20081;-75
2023/08/13 08:57:42;;;;;;;4.33;3.93;;;;;;;;;;10214704;28;20081;-74
2023/08/13 09:02:43;;;;;;;4.00;3.70;;;;;;;;;;10241665;28;20110;-74
2023/08/13 09:07:43;;;;;;;4.13;3.72;;;;;;;;;;10204109;28;20051;-85
2023/08/13 09:12:44;;;;;;;4.13;3.73;;;;;;;;;;10182476;28;20846;-81
2023/08/13 09:17:44;;;;;;;4.85;4.22;;;;;;;;;;10200784;29;20475;-80
2023/08/13 09:22:48;;;;;;;4.10;3.67;;;;;;;;;;10198362;29;20047;-78
2023/08/13 09:27:48;;;;;;;4.20;3.80;;;;;;;;;;10190250;29;20047;-76
2023/08/13 09:32:49;;;;;;;4.57;3.75;;;;;;;;;;10197388;29;20051;-76
2023/08/13 09:37:50;;;;;;;4.30;3.60;;;;;;;;;;10195514;29;20048;-82
2023/08/13 09:42:53;;;;;;;5.03;4.38;;;;;;;;;;10192224;29;20168;-72
2023/08/13 09:47:55;;;;;;;5.72;4.60;;;;;;;;;;10203250;29;20047;-75
2023/08/13 09:52:58;;;;;;;6.23;4.50;;;;;;;;;;10194439;29;20060;-76
2023/08/13 09:58:00;;;;;;;3.95;3.53;;;;;;;;;;10196290;29;20283;-72
2023/08/13 10:03:01;;;;;;;3.85;3.20;;;;;;;;;;10195744;29;20651;-78
2023/08/13 10:08:01;;;;;;;3.95;3.55;;;;;;;;;;10177688;29;20051;-77
2023/08/13 10:13:02;;;;;;;3.80;3.40;;;;;;;;;;10194060;29;20107;-76
2023/08/13 10:18:05;;;;;;;4.10;3.78;;;;;;;;;;10188744;29;20456;-78
2023/08/13 10:23:08;;;;;;;4.30;3.90;;;;;;;;;;10201650;29;20418;-75
2023/08/13 10:28:26;;;;;;;5.13;4.15;;;;;;;;;;10208090;28;20410;-83
2023/08/13 10:33:29;;;;;;;4.03;3.72;;;;;;;;;;10190908;29;20063;-78
2023/08/13 10:38:33;;;;;;;5.25;4.55;;;;;;;;;;10194719;28;20159;-75
2023/08/13 10:43:33;;;;;;;5.85;3.72;;;;;;;;;;10194146;29;20140;-77
2023/08/13 10:48:34;;;;;;;4.68;3.58;;;;;;;;;;10196774;29;20054;-77
2023/08/13 10:53:35;;;;;;;4.85;4.30;;;;;;;;;;10184908;29;20055;-79
2023/08/13 10:58:35;;;;;;;4.18;3.78;;;;;;;;;;10208282;29;20047;-81
2023/08/13 11:03:43;;;;;;;4.47;3.50;;;;;;;;;;10200267;28;20055;-77
2023/08/13 11:08:46;;;;;;;4.40;4.00;;;;;;;;;;10202062;29;20111;-76
2023/08/13 11:13:47;;;;;;;4.70;4.20;;;;;;;;;;10181152;29;20079;-79
2023/08/13 11:18:50;;;;;;;4.47;4.03;;;;;;;;;;10190833;29;20695;-79
2023/08/13 11:23:51;;;;;;;5.80;4.40;;;;;;;;;;10199661;29;20040;-78
2023/08/13 11:28:55;;;;;;;4.85;4.35;;;;;;;;;;10190455;28;20156;-79
2023/08/13 11:33:56;;;;;;;4.72;4.10;;;;;;;;;;10204299;29;20039;-78
2023/08/13 11:38:58;;;;;;;5.30;4.70;;;;;;;;;;10199754;29;20974;-77
2023/08/13 11:43:59;;;;;;;5.15;4.65;;;;;;;;;;10201523;28;20040;-80
2023/08/13 11:49:00;;;;;;;5.57;5.07;;;;;;;;;;10199817;29;20051;-78
2023/08/13 11:54:08;;;;;;;4.73;4.33;;;;;;;;;;10201324;29;20413;-79
2023/08/13 11:59:08;;;;;;;4.88;4.38;;;;;;;;;;10202209;29;20594;-79
2023/08/13 12:04:08;;;;;;;5.53;4.50;;;;;;;;;;10196029;29;20054;-80
2023/08/13 12:09:09;;;;;;;6.30;4.20;;;;;;;;;;10193573;29;20327;-78
2023/08/13 12:14:09;;;;;;;4.90;4.50;;;;;;;;;;10190163;29;20173;-75
2023/08/13 12:19:10;;;;;;;4.90;4.40;;;;;;;;;;10186364;29;20489;-75
2023/08/13 12:24:10;;;;;;;4.57;4.13;;;;;;;;;;10196889;29;20051;-75
2023/08/13 12:29:10;;;;;;;5.00;4.60;;;;;;;;;;10191438;28;20346;-73
2023/08/13 12:34:11;;;;;;;5.37;4.60;;;;;;;;;;10194886;29;20306;-73
2023/08/13 12:39:11;;;;;;;5.10;4.47;;;;;;;;;;10174464;29;20051;-73
2023/08/13 12:44:11;;;;;;;5.33;4.73;;;;;;;;;;10187462;29;20468;-74
2023/08/13 12:49:12;;;;;;;5.68;4.72;;;;;;;;;;10205902;29;20048;-76
2023/08/13 12:54:12;;;;;;;6.13;4.80;;;;;;;;;;10203087;29;20074;-79
2023/08/13 12:59:12;;;;;;;5.07;4.60;;;;;;;;;;10199784;28;20051;-83
2023/08/13 13:04:13;;;;;;;4.80;4.37;;;;;;;;;;10215482;29;20044;-83
2023/08/13 13:09:13;;;;;;;4.93;4.50;;;;;;;;;;10207150;28;20065;-83
2023/08/13 13:14:14;;;;;;;5.20;4.33;;;;;;;;;;10213135;28;20084;-82
2023/08/13 13:19:15;;;;;;;4.63;4.17;;;;;;;;;;10212361;29;20056;-87
2023/08/13 13:24:16;;;;;;;4.38;3.80;;;;;;;;;;10194709;28;20036;-81
2023/08/13 13:29:16;;;;;;;5.13;4.63;;;;;;;;;;10226407;29;20062;-80
2023/08/13 13:34:18;;;;;;;4.37;3.97;;;;;;;;;;10219272;29;20075;-83
2023/08/13 13:39:18;;;;;;;5.13;4.65;;;;;;;;;;10195732;29;20062;-80
2023/08/13 13:44:19;;;;;;;4.83;4.30;;;;;;;;;;10195701;28;20058;-78
2023/08/13 13:49:20;;;;;;;4.75;4.05;;;;;;;;;;10181453;29;20090;-79
2023/08/13 13:54:20;;;;;;;5.10;4.43;;;;;;;;;;10184763;29;21022;-73
2023/08/13 13:59:21;;;;;;;5.43;4.33;;;;;;;;;;10183589;29;20052;-77
2023/08/13 14:04:21;;;;;;;5.20;4.63;;;;;;;;;;10169864;29;20056;-73
2023/08/13 14:09:22;;;;;;;4.63;4.23;;;;;;;;;;10177117;29;20449;-71
2023/08/13 14:14:22;;;;;;;4.40;4.00;;;;;;;;;;10194955;28;20050;-73
2023/08/13 14:19:22;;;;;;;4.83;4.00;;;;;;;;;;10178107;29;20052;-71
2023/08/13 14:24:23;;;;;;;4.60;4.20;;;;;;;;;;10174875;28;20040;-73
2023/08/13 14:29:23;;;;;;;4.47;4.07;;;;;;;;;;10191382;28;20059;-71
2023/08/13 14:34:24;;;;;;;4.50;4.10;;;;;;;;;;10197339;29;20060;-76
2023/08/13 14:39:24;;;;;;;4.77;4.30;;;;;;;;;;10190230;29;20107;-74
2023/08/13 14:44:24;;;;;;;5.17;3.63;;;;;;;;;;10186660;29;20059;-73
2023/08/13 14:49:25;;;;;;;4.03;3.70;;;;;;;;;;10195426;29;20048;-73
2023/08/13 14:54:25;;;;;;;5.00;4.50;;;;;;;;;;10197884;29;20043;-74
2023/08/13 14:59:26;;;;;;;4.40;4.00;;;;;;;;;;10199597;29;20082;-76
2023/08/13 15:04:26;;;;;;;5.23;4.43;;;;;;;;;;10191577;29;20079;-74
2023/08/13 15:09:26;;;;;;;5.63;4.33;;;;;;;;;;10196371;29;20059;-73
2023/08/13 15:14:27;;;;;;;5.37;4.00;;;;;;;;;;10202717;28;20543;-79
2023/08/13 15:19:27;;;;;;;5.07;3.97;;;;;;;;;;10186541;29;20056;-77
2023/08/13 15:24:27;;;;;;;4.30;3.90;;;;;;;;;;10194898;29;20062;-80
2023/08/13 15:29:27;;;;;;;4.40;4.00;;;;;;;;;;10186278;28;20066;-78
2023/08/13 15:34:28;;;;;;;4.67;4.17;;;;;;;;;;10196308;29;20051;-78
2023/08/13 15:39:28;;;;;;;3.90;3.60;;;;;;;;;;10200629;29;20058;-79
2023/08/13 15:44:29;;;;;;;7.47;4.23;;;;;;;;;;10198779;28;20441;-76
2023/08/13 15:49:29;;;;;;;4.47;3.80;;;;;;;;;;10184005;29;20150;-78
2023/08/13 15:54:30;;;;;;;5.97;4.00;;;;;;;;;;10179042;29;20055;-78
2023/08/13 15:59:30;;;;;;;5.40;3.73;;;;;;;;;;10194871;29;20079;-76
2023/08/13 16:04:30;;;;;;;3.93;3.53;;;;;;;;;;10201250;29;20051;-77
2023/08/13 16:09:31;;;;;;;3.87;3.57;;;;;;;;;;10195885;29;20066;-79
2023/08/13 16:14:31;;;;;;;4.60;4.20;;;;;;;;;;10196005;28;20083;-80
2023/08/13 16:19:33;;;;;;;5.28;3.85;;;;;;;;;;10187829;28;20123;-78
2023/08/13 16:24:33;;;;;;;4.10;3.70;;;;;;;;;;10185881;29;20054;-79
2023/08/13 16:29:33;;;;;;;4.20;3.50;;;;;;;;;;10183279;29;20055;-77
2023/08/13 16:34:34;;;;;;;3.83;3.47;;;;;;;;;;10203316;29;20047;-80
2023/08/13 16:39:34;;;;;;;4.50;4.03;;;;;;;;;;10200925;29;20043;-78
2023/08/13 16:44:34;;;;;;;4.97;3.87;;;;;;;;;;10199678;28;20708;-79
2023/08/13 16:49:35;;;;;;;3.90;3.60;;;;;;;;;;10199893;28;20124;-79
2023/08/13 16:54:35;;;;;;;3.57;3.27;;;;;;;;;;10203093;29;21063;-79
2023/08/13 16:59:35;;;;;;;5.50;3.70;;;;;;;;;;10183038;29;20050;-79
2023/08/13 17:04:36;;;;;;;4.00;3.70;;;;;;;;;;10201139;29;20051;-79
2023/08/13 17:09:36;;;;;;;4.80;4.30;;;;;;;;;;10193215;28;20066;-78
2023/08/13 17:14:36;;;;;;;5.77;4.47;;;;;;;;;;10189591;29;20050;-79
2023/08/13 17:19:37;;;;;;;4.40;3.73;;;;;;;;;;10200209;29;20052;-80
2023/08/13 17:24:37;;;;;;;4.43;4.00;;;;;;;;;;10185602;28;20473;-78
2023/08/13 17:29:37;;;;;;;4.90;4.03;;;;;;;;;;10196662;29;20074;-81
2023/08/13 17:34:38;;;;;;;4.57;4.18;;;;;;;;;;10207610;29;20056;-79
2023/08/13 17:39:38;;;;;;;4.43;3.97;;;;;;;;;;10200531;28;20055;-80
2023/08/13 18:11:39;;;;;;;4.82;4.07;;;;;;;;;;11262508;23;20125;-88
2023/08/13 18:16:39;;;;;;;5.17;4.70;;;;;;;;;;10185970;29;20036;-85
2023/08/13 18:21:39;;;;;;;5.50;3.90;;;;;;;;;;10201827;28;20041;-83
2023/08/13 18:26:40;;;;;;;4.50;4.10;;;;;;;;;;10210563;28;20032;-82
2023/08/13 18:31:40;;;;;;;4.30;3.83;;;;;;;;;;10165204;29;20072;-82
2023/08/13 18:36:41;;;;;;;4.23;3.93;;;;;;;;;;10174307;29;20045;-81
2023/08/13 18:41:43;;;;;;;4.63;4.22;;;;;;;;;;10167715;29;20294;-80
2023/08/13 18:46:44;;;;;;;5.10;4.55;;;;;;;;;;10161596;29;20037;-83
2023/08/13 18:51:44;;;;;;;9.95;8.70;;;;;;;;;;10154085;29;20060;-78
2023/08/13 18:56:44;;;;;;;7.87;7.07;;;;;;;;;;10174821;29;20065;-80
2023/08/13 19:01:45;;;;;;;6.07;4.60;;;;;;;;;;10167925;29;20044;-79
2023/08/13 19:06:45;;;;;;;5.47;4.93;;;;;;;;;;10160204;29;20044;-82
2023/08/13 19:11:45;;;;;;;5.33;4.80;;;;;;;;;;10152033;29;20320;-79
2023/08/13 19:16:46;;;;;;;5.50;4.63;;;;;;;;;;10144991;29;20405;-80
2023/08/13 19:21:46;;;;;;;5.30;4.73;;;;;;;;;;10167119;29;20048;-78
2023/08/13 19:26:46;;;;;;;6.77;5.23;;;;;;;;;;10163651;29;20070;-78
2023/08/13 19:31:47;;;;;;;6.30;5.70;;;;;;;;;;10148930;29;20677;-78
2023/08/13 19:36:47;;;;;;;6.27;5.33;;;;;;;;;;10158835;29;20056;-77
2023/08/13 19:41:47;;;;;;;6.27;5.40;;;;;;;;;;10154522;29;20061;-80
2023/08/13 19:46:50;;;;;;;4.97;4.35;;;;;;;;;;10169190;29;20116;-81
2023/08/13 19:51:50;;;;;;;5.87;5.10;;;;;;;;;;10174483;28;20110;-81
2023/08/13 19:56:52;;;;;;;10.90;7.97;;;;;;;;;;10238569;28;20551;-81
2023/08/13 20:01:54;;;;;;;7.70;6.90;;;;;;;;;;10217543;28;20122;-82
2023/08/13 20:06:54;;;;;;;6.90;6.00;;;;;;;;;;10237021;28;20039;-79
2023/08/13 20:11:54;;;;;;;7.20;6.50;;;;;;;;;;10237703;28;20795;-81
2023/08/13 20:16:55;;;;;;;7.32;6.57;;;;;;;;;;10227170;28;20287;-80
2023/08/13 20:21:56;;;;;;;7.43;6.07;;;;;;;;;;10229059;28;20043;-80
2023/08/13 20:26:58;;;;;;;6.97;6.30;;;;;;;;;;10218327;28;20062;-79
2023/08/13 20:31:58;;;;;;;6.63;5.97;;;;;;;;;;10216918;28;20057;-79
2023/08/13 20:36:59;;;;;;;7.67;6.87;;;;;;;;;;10234750;28;20046;-81
2023/08/13 20:41:59;;;;;;;7.40;6.70;;;;;;;;;;10232422;28;20054;-77
2023/08/13 20:47:00;;;;;;;8.93;7.07;;;;;;;;;;10230466;28;20051;-79
2023/08/13 20:52:00;;;;;;;7.77;7.07;;;;;;;;;;10225288;28;20090;-80
2023/08/13 20:57:00;;;;;;;8.70;7.80;;;;;;;;;;10236261;28;20790;-80
2023/08/13 21:02:01;;;;;;;8.00;7.20;;;;;;;;;;10226721;28;20318;-79
2023/08/13 21:07:01;;;;;;;9.03;7.27;;;;;;;;;;10222828;28;20086;-78
2023/08/13 21:12:01;;;;;;;7.80;7.00;;;;;;;;;;10231970;28;20616;-79
2023/08/13 21:17:02;;;;;;;8.43;7.33;;;;;;;;;;10230109;28;20043;-78
2023/08/13 21:22:02;;;;;;;7.97;7.20;;;;;;;;;;10227615;28;20287;-78
2023/08/13 21:27:02;;;;;;;8.93;8.02;;;;;;;;;;10211683;28;20075;-78
2023/08/13 21:32:03;;;;;;;7.57;6.88;;;;;;;;;;10215264;28;20575;-79
2023/08/13 21:37:03;;;;;;;7.38;6.60;;;;;;;;;;10225508;28;20864;-78
2023/08/13 21:42:04;;;;;;;7.43;6.67;;;;;;;;;;10225945;28;20039;-78
2023/08/13 21:47:04;;;;;;;7.17;6.47;;;;;;;;;;10225143;28;20645;-84
2023/08/13 21:52:04;;;;;;;7.30;6.50;;;;;;;;;;10224150;28;20087;-79
2023/08/13 21:57:05;;;;;;;7.17;6.37;;;;;;;;;;10209875;28;20290;-79
2023/08/13 22:02:05;;;;;;;7.00;6.10;;;;;;;;;;10236254;28;20329;-80
2023/08/13 22:07:05;;;;;;;6.77;6.03;;;;;;;;;;10226057;28;20043;-83
2023/08/13 22:12:06;;;;;;;7.22;6.55;;;;;;;;;;10221917;28;20519;-81
2023/08/13 22:17:06;;;;;;;8.23;7.10;;;;;;;;;;10217765;28;20048;-79
2023/08/13 22:22:07;;;;;;;7.87;7.07;;;;;;;;;;10220624;28;20278;-80
2023/08/13 22:27:07;;;;;;;7.87;7.17;;;;;;;;;;10221382;28;20310;-79
2023/08/13 22:32:07;;;;;;;8.73;6.85;;;;;;;;;;10213382;28;20078;-78
2023/08/13 22:37:11;;;;;;;8.40;7.55;;;;;;;;;;10225900;28;20071;-78
2023/08/13 22:42:13;;;;;;;11.27;8.27;;;;;;;;;;10234884;28;20056;-79
2023/08/13 22:47:13;;;;;;;9.55;8.63;;;;;;;;;;10219803;28;20047;-77
2023/08/13 22:52:14;;;;;;;9.43;8.53;;;;;;;;;;10237912;28;20058;-77
2023/08/13 22:57:15;;;;;;;8.10;6.75;;;;;;;;;;10238953;28;20047;-77
2023/08/13 23:02:15;;;;;;;7.30;6.60;;;;;;;;;;10227119;28;20043;-78
2023/08/13 23:07:15;;;;;;;7.67;6.87;;;;;;;;;;10239914;28;20061;-78
2023/08/13 23:12:15;;;;;;;8.37;7.50;;;;;;;;;;10233895;23;20080;-77
2023/08/13 23:17:16;;;;;;;8.70;7.80;;;;;;;;;;10222672;23;20199;-79
2023/08/13 23:22:16;;;;;;;8.88;7.97;;;;;;;;;;10208314;23;20154;-78
2023/08/13 23:27:17;;;;;;;8.93;7.43;;;;;;;;;;10157144;28;20144;-77
2023/08/13 23:32:18;;;;;;;8.00;7.30;;;;;;;;;;10189541;29;20072;-78
2023/08/13 23:37:18;;;;;;;9.73;8.15;;;;;;;;;;10199226;29;20086;-78
2023/08/13 23:42:19;;;;;;;8.70;7.80;;;;;;;;;;10172993;29;20043;-78
2023/08/13 23:47:19;;;;;;;10.48;7.75;;;;;;;;;;10185352;29;20299;-80
2023/08/13 23:52:19;;;;;;;9.00;7.67;;;;;;;;;;10190989;28;20055;-75
2023/08/13 23:57:20;;;;;;;8.13;7.33;;;;;;;;;;10189656;28;20055;-78
